sensor_id;sensor_type;location;lat;lon;timestamp;P1;durP1;ratioP1;P2;durP2;ratioP2
11082;SDS011;5595;50.186;8.468;2024-02-28T00:01:28;11.83;;;4.97;;
11082;SDS011;5595;50.186;8.468;2024-02-28T00:03:55;11.00;;;4.63;;
11082;SDS011;5595;50.186;8.468;2024-02-28T00:06:22;8.60;;;4.60;;
11082;SDS011;5595;50.186;8.468;2024-02-28T00:08:49;10.40;;;4.30;;
11082;SDS011;5595;50.186;8.468;2024-02-28T00:11:18;9.23;;;4.70;;
11082;SDS011;5595;50.186;8.468;2024-02-28T00:13:44;10.80;;;5.50;;
11082;SDS011;5595;50.186;8.468;2024-02-28T00:16:11;8.53;;;5.17;;
11082;SDS011;5595;50.186;8.468;2024-02-28T00:18:39;9.83;;;5.67;;
11082;SDS011;5595;50.186;8.468;2024-02-28T00:21:06;9.63;;;6.03;;
11082;SDS011;5595;50.186;8.468;2024-02-28T00:23:33;8.60;;;4.27;;
11082;SDS011;5595;50.186;8.468;2024-02-28T00:25:59;9.77;;;5.13;;
11082;SDS011;5595;50.186;8.468;2024-02-28T00:28:26;11.87;;;5.50;;
11082;SDS011;5595;50.186;8.468;2024-02-28T00:30:53;4.23;;;1.90;;
11082;SDS011;5595;50.186;8.468;2024-02-28T00:33:20;11.47;;;5.60;;
11082;SDS011;5595;50.186;8.468;2024-02-28T00:35:48;9.87;;;5.03;;
11082;SDS011;5595;50.186;8.468;2024-02-28T00:38:15;7.83;;;3.33;;
11082;SDS011;5595;50.186;8.468;2024-02-28T00:40:41;8.53;;;2.93;;
11082;SDS011;5595;50.186;8.468;2024-02-28T00:43:08;10.87;;;4.43;;
11082;SDS011;5595;50.186;8.468;2024-02-28T00:45:35;10.20;;;5.03;;
11082;SDS011;5595;50.186;8.468;2024-02-28T00:48:02;9.20;;;4.87;;
11082;SDS011;5595;50.186;8.468;2024-02-28T00:50:29;9.80;;;5.33;;
11082;SDS011;5595;50.186;8.468;2024-02-28T00:52:57;9.20;;;4.83;;
11082;SDS011;5595;50.186;8.468;2024-02-28T00:55:24;11.43;;;5.17;;
11082;SDS011;5595;50.186;8.468;2024-02-28T00:57:51;8.97;;;4.53;;
11082;SDS011;5595;50.186;8.468;2024-02-28T01:00:18;5.50;;;3.63;;
11082;SDS011;5595;50.186;8.468;2024-02-28T01:02:45;4.67;;;2.40;;
11082;SDS011;5595;50.186;8.468;2024-02-28T01:05:11;2.50;;;1.43;;
11082;SDS011;5595;50.186;8.468;2024-02-28T01:07:38;3.17;;;1.93;;
11082;SDS011;5595;50.186;8.468;2024-02-28T01:10:07;10.10;;;4.30;;
11082;SDS011;5595;50.186;8.468;2024-02-28T01:12:34;9.00;;;3.70;;
11082;SDS011;5595;50.186;8.468;2024-02-28T01:15:01;12.17;;;5.53;;
11082;SDS011;5595;50.186;8.468;2024-02-28T01:17:29;13.30;;;5.23;;
11082;SDS011;5595;50.186;8.468;2024-02-28T01:19:56;11.37;;;4.83;;
11082;SDS011;5595;50.186;8.468;2024-02-28T01:22:23;11.17;;;5.07;;
11082;SDS011;5595;50.186;8.468;2024-02-28T01:24:50;8.93;;;4.83;;
11082;SDS011;5595;50.186;8.468;2024-02-28T01:27:18;11.87;;;5.27;;
11082;SDS011;5595;50.186;8.468;2024-02-28T01:29:45;9.87;;;5.37;;
11082;SDS011;5595;50.186;8.468;2024-02-28T01:32:12;10.93;;;5.10;;
11082;SDS011;5595;50.186;8.468;2024-02-28T01:34:39;8.90;;;4.57;;
11082;SDS011;5595;50.186;8.468;2024-02-28T01:37:05;8.63;;;5.20;;
11082;SDS011;5595;50.186;8.468;2024-02-28T01:39:32;9.97;;;4.30;;
11082;SDS011;5595;50.186;8.468;2024-02-28T01:41:59;7.13;;;4.23;;
11082;SDS011;5595;50.186;8.468;2024-02-28T01:44:27;11.80;;;5.33;;
11082;SDS011;5595;50.186;8.468;2024-02-28T01:46:54;9.03;;;5.07;;
11082;SDS011;5595;50.186;8.468;2024-02-28T01:49:21;8.83;;;4.53;;
11082;SDS011;5595;50.186;8.468;2024-02-28T01:51:49;8.57;;;4.23;;
11082;SDS011;5595;50.186;8.468;2024-02-28T01:54:18;10.73;;;4.43;;
11082;SDS011;5595;50.186;8.468;2024-02-28T01:56:47;8.20;;;3.87;;
11082;SDS011;5595;50.186;8.468;2024-02-28T01:59:15;10.87;;;3.90;;
11082;SDS011;5595;50.186;8.468;2024-02-28T02:01:45;8.77;;;3.87;;
11082;SDS011;5595;50.186;8.468;2024-02-28T02:04:12;9.13;;;3.60;;
11082;SDS011;5595;50.186;8.468;2024-02-28T02:06:39;9.27;;;4.53;;
11082;SDS011;5595;50.186;8.468;2024-02-28T02:09:09;8.03;;;4.07;;
11082;SDS011;5595;50.186;8.468;2024-02-28T02:11:37;9.10;;;4.10;;
11082;SDS011;5595;50.186;8.468;2024-02-28T02:14:05;9.93;;;4.07;;
11082;SDS011;5595;50.186;8.468;2024-02-28T02:16:32;12.57;;;4.00;;
11082;SDS011;5595;50.186;8.468;2024-02-28T02:19:00;8.23;;;3.87;;
11082;SDS011;5595;50.186;8.468;2024-02-28T02:21:30;5.67;;;3.30;;
11082;SDS011;5595;50.186;8.468;2024-02-28T02:24:01;9.50;;;3.60;;
11082;SDS011;5595;50.186;8.468;2024-02-28T02:26:28;6.80;;;3.43;;
11082;SDS011;5595;50.186;8.468;2024-02-28T02:28:55;6.53;;;3.20;;
11082;SDS011;5595;50.186;8.468;2024-02-28T02:31:22;7.27;;;3.20;;
11082;SDS011;5595;50.186;8.468;2024-02-28T02:33:49;8.53;;;2.93;;
11082;SDS011;5595;50.186;8.468;2024-02-28T02:36:16;7.70;;;3.33;;
11082;SDS011;5595;50.186;8.468;2024-02-28T02:38:42;6.43;;;3.20;;
11082;SDS011;5595;50.186;8.468;2024-02-28T02:41:11;9.10;;;3.93;;
11082;SDS011;5595;50.186;8.468;2024-02-28T02:43:39;5.97;;;3.00;;
11082;SDS011;5595;50.186;8.468;2024-02-28T02:46:06;7.23;;;3.00;;
11082;SDS011;5595;50.186;8.468;2024-02-28T02:48:33;9.47;;;3.43;;
11082;SDS011;5595;50.186;8.468;2024-02-28T02:50:59;7.50;;;3.63;;
11082;SDS011;5595;50.186;8.468;2024-02-28T02:53:26;8.30;;;4.03;;
11082;SDS011;5595;50.186;8.468;2024-02-28T02:55:53;7.23;;;3.50;;
11082;SDS011;5595;50.186;8.468;2024-02-28T02:58:21;8.27;;;3.40;;
11082;SDS011;5595;50.186;8.468;2024-02-28T03:00:48;5.50;;;2.93;;
11082;SDS011;5595;50.186;8.468;2024-02-28T03:03:15;5.00;;;3.47;;
11082;SDS011;5595;50.186;8.468;2024-02-28T03:05:42;6.17;;;3.40;;
11082;SDS011;5595;50.186;8.468;2024-02-28T03:08:08;6.77;;;3.37;;
11082;SDS011;5595;50.186;8.468;2024-02-28T03:10:35;5.90;;;3.43;;
11082;SDS011;5595;50.186;8.468;2024-02-28T03:13:02;6.83;;;3.00;;
11082;SDS011;5595;50.186;8.468;2024-02-28T03:15:33;6.10;;;3.13;;
11082;SDS011;5595;50.186;8.468;2024-02-28T03:18:00;8.20;;;3.50;;
11082;SDS011;5595;50.186;8.468;2024-02-28T03:20:27;5.73;;;3.13;;
11082;SDS011;5595;50.186;8.468;2024-02-28T03:22:53;7.93;;;3.10;;
11082;SDS011;5595;50.186;8.468;2024-02-28T03:25:20;8.27;;;3.33;;
11082;SDS011;5595;50.186;8.468;2024-02-28T03:27:47;5.50;;;3.70;;
11082;SDS011;5595;50.186;8.468;2024-02-28T03:30:14;8.37;;;2.97;;
11082;SDS011;5595;50.186;8.468;2024-02-28T03:32:42;7.63;;;3.30;;
11082;SDS011;5595;50.186;8.468;2024-02-28T03:35:09;8.87;;;3.90;;
11082;SDS011;5595;50.186;8.468;2024-02-28T03:37:36;6.60;;;3.00;;
11082;SDS011;5595;50.186;8.468;2024-02-28T03:40:03;10.63;;;2.77;;
11082;SDS011;5595;50.186;8.468;2024-02-28T03:42:30;5.77;;;2.60;;
11082;SDS011;5595;50.186;8.468;2024-02-28T03:44:57;5.57;;;2.60;;
11082;SDS011;5595;50.186;8.468;2024-02-28T03:47:24;6.70;;;3.23;;
11082;SDS011;5595;50.186;8.468;2024-02-28T03:49:52;5.80;;;2.37;;
11082;SDS011;5595;50.186;8.468;2024-02-28T03:52:22;4.27;;;2.13;;
11082;SDS011;5595;50.186;8.468;2024-02-28T03:54:49;2.27;;;1.57;;
11082;SDS011;5595;50.186;8.468;2024-02-28T03:57:15;5.83;;;2.00;;
11082;SDS011;5595;50.186;8.468;2024-02-28T03:59:42;3.20;;;2.33;;
11082;SDS011;5595;50.186;8.468;2024-02-28T04:02:09;6.00;;;2.47;;
11082;SDS011;5595;50.186;8.468;2024-02-28T04:04:36;3.53;;;1.70;;
11082;SDS011;5595;50.186;8.468;2024-02-28T04:07:04;3.80;;;1.40;;
11082;SDS011;5595;50.186;8.468;2024-02-28T04:09:31;3.37;;;1.57;;
11082;SDS011;5595;50.186;8.468;2024-02-28T04:11:58;2.57;;;1.33;;
11082;SDS011;5595;50.186;8.468;2024-02-28T04:14:25;2.60;;;1.07;;
11082;SDS011;5595;50.186;8.468;2024-02-28T04:16:52;3.93;;;1.20;;
11082;SDS011;5595;50.186;8.468;2024-02-28T04:19:19;2.50;;;1.00;;
11082;SDS011;5595;50.186;8.468;2024-02-28T04:21:45;1.63;;;0.90;;
11082;SDS011;5595;50.186;8.468;2024-02-28T04:24:14;3.03;;;1.37;;
11082;SDS011;5595;50.186;8.468;2024-02-28T04:26:40;2.30;;;1.53;;
11082;SDS011;5595;50.186;8.468;2024-02-28T04:29:07;4.00;;;1.97;;
11082;SDS011;5595;50.186;8.468;2024-02-28T04:31:38;3.93;;;1.80;;
11082;SDS011;5595;50.186;8.468;2024-02-28T04:34:05;2.60;;;1.57;;
11082;SDS011;5595;50.186;8.468;2024-02-28T04:36:32;4.77;;;1.90;;
11082;SDS011;5595;50.186;8.468;2024-02-28T04:38:59;3.13;;;1.40;;
11082;SDS011;5595;50.186;8.468;2024-02-28T04:41:28;6.97;;;1.67;;
11082;SDS011;5595;50.186;8.468;2024-02-28T04:43:55;3.93;;;2.00;;
11082;SDS011;5595;50.186;8.468;2024-02-28T04:46:21;2.17;;;1.10;;
11082;SDS011;5595;50.186;8.468;2024-02-28T04:48:48;3.17;;;2.03;;
11082;SDS011;5595;50.186;8.468;2024-02-28T04:51:15;4.03;;;1.33;;
11082;SDS011;5595;50.186;8.468;2024-02-28T04:53:42;1.93;;;0.83;;
11082;SDS011;5595;50.186;8.468;2024-02-28T04:56:09;1.50;;;0.77;;
11082;SDS011;5595;50.186;8.468;2024-02-28T04:58:37;1.43;;;0.70;;
11082;SDS011;5595;50.186;8.468;2024-02-28T05:01:04;4.10;;;0.70;;
11082;SDS011;5595;50.186;8.468;2024-02-28T05:03:31;3.30;;;1.47;;
11082;SDS011;5595;50.186;8.468;2024-02-28T05:05:58;1.43;;;0.80;;
11082;SDS011;5595;50.186;8.468;2024-02-28T05:08:25;2.57;;;0.90;;
11082;SDS011;5595;50.186;8.468;2024-02-28T05:10:53;8.03;;;1.60;;
11082;SDS011;5595;50.186;8.468;2024-02-28T05:13:20;3.90;;;1.13;;
11082;SDS011;5595;50.186;8.468;2024-02-28T05:15:50;3.80;;;2.03;;
11082;SDS011;5595;50.186;8.468;2024-02-28T05:18:17;5.00;;;1.70;;
11082;SDS011;5595;50.186;8.468;2024-02-28T05:20:44;4.53;;;1.93;;
11082;SDS011;5595;50.186;8.468;2024-02-28T05:23:11;4.33;;;1.93;;
11082;SDS011;5595;50.186;8.468;2024-02-28T05:25:37;2.77;;;1.63;;
11082;SDS011;5595;50.186;8.468;2024-02-28T05:28:06;3.47;;;2.07;;
11082;SDS011;5595;50.186;8.468;2024-02-28T05:30:33;1.87;;;1.30;;
11082;SDS011;5595;50.186;8.468;2024-02-28T05:33:01;3.37;;;1.53;;
11082;SDS011;5595;50.186;8.468;2024-02-28T05:35:28;2.23;;;1.40;;
11082;SDS011;5595;50.186;8.468;2024-02-28T05:37:54;1.70;;;1.00;;
11082;SDS011;5595;50.186;8.468;2024-02-28T05:40:20;2.73;;;1.27;;
11082;SDS011;5595;50.186;8.468;2024-02-28T05:42:47;1.53;;;0.67;;
11082;SDS011;5595;50.186;8.468;2024-02-28T05:45:14;2.23;;;0.87;;
11082;SDS011;5595;50.186;8.468;2024-02-28T05:47:41;2.00;;;0.60;;
11082;SDS011;5595;50.186;8.468;2024-02-28T05:50:10;1.50;;;0.90;;
11082;SDS011;5595;50.186;8.468;2024-02-28T05:52:38;4.73;;;1.20;;
11082;SDS011;5595;50.186;8.468;2024-02-28T05:55:07;1.37;;;1.00;;
11082;SDS011;5595;50.186;8.468;2024-02-28T05:57:34;3.00;;;1.30;;
11082;SDS011;5595;50.186;8.468;2024-02-28T06:00:01;0.97;;;0.53;;
11082;SDS011;5595;50.186;8.468;2024-02-28T06:02:34;2.97;;;1.23;;
11082;SDS011;5595;50.186;8.468;2024-02-28T06:05:01;1.50;;;0.77;;
11082;SDS011;5595;50.186;8.468;2024-02-28T06:07:30;1.57;;;0.80;;
11082;SDS011;5595;50.186;8.468;2024-02-28T06:09:56;3.20;;;0.70;;
11082;SDS011;5595;50.186;8.468;2024-02-28T06:12:23;2.13;;;0.80;;
11082;SDS011;5595;50.186;8.468;2024-02-28T06:14:50;2.03;;;0.83;;
11082;SDS011;5595;50.186;8.468;2024-02-28T06:17:17;1.90;;;0.87;;
11082;SDS011;5595;50.186;8.468;2024-02-28T06:19:43;3.20;;;1.30;;
11082;SDS011;5595;50.186;8.468;2024-02-28T06:22:10;2.87;;;0.97;;
11082;SDS011;5595;50.186;8.468;2024-02-28T06:24:40;2.50;;;1.07;;
11082;SDS011;5595;50.186;8.468;2024-02-28T06:27:07;1.10;;;0.60;;
11082;SDS011;5595;50.186;8.468;2024-02-28T06:29:37;1.70;;;1.00;;
11082;SDS011;5595;50.186;8.468;2024-02-28T06:32:04;1.23;;;0.70;;
11082;SDS011;5595;50.186;8.468;2024-02-28T06:34:31;1.47;;;0.90;;
11082;SDS011;5595;50.186;8.468;2024-02-28T06:36:58;2.93;;;1.03;;
11082;SDS011;5595;50.186;8.468;2024-02-28T06:39:24;2.50;;;1.20;;
11082;SDS011;5595;50.186;8.468;2024-02-28T06:41:52;1.23;;;1.10;;
11082;SDS011;5595;50.186;8.468;2024-02-28T06:44:19;3.20;;;1.57;;
11082;SDS011;5595;50.186;8.468;2024-02-28T06:46:46;1.83;;;0.97;;
11082;SDS011;5595;50.186;8.468;2024-02-28T06:49:13;2.67;;;1.10;;
11082;SDS011;5595;50.186;8.468;2024-02-28T06:51:39;1.97;;;1.03;;
11082;SDS011;5595;50.186;8.468;2024-02-28T06:54:06;2.70;;;1.23;;
11082;SDS011;5595;50.186;8.468;2024-02-28T06:56:33;3.40;;;1.00;;
11082;SDS011;5595;50.186;8.468;2024-02-28T06:59:02;1.50;;;0.93;;
11082;SDS011;5595;50.186;8.468;2024-02-28T07:01:32;1.23;;;0.70;;
11082;SDS011;5595;50.186;8.468;2024-02-28T07:03:58;2.80;;;1.10;;
11082;SDS011;5595;50.186;8.468;2024-02-28T07:06:25;1.60;;;0.63;;
11082;SDS011;5595;50.186;8.468;2024-02-28T07:08:52;0.80;;;0.50;;
11082;SDS011;5595;50.186;8.468;2024-02-28T07:11:19;1.77;;;0.80;;
11082;SDS011;5595;50.186;8.468;2024-02-28T07:13:46;1.17;;;0.53;;
11082;SDS011;5595;50.186;8.468;2024-02-28T07:16:14;1.00;;;0.63;;
11082;SDS011;5595;50.186;8.468;2024-02-28T07:18:41;1.03;;;0.57;;
11082;SDS011;5595;50.186;8.468;2024-02-28T07:21:08;1.10;;;0.40;;
11082;SDS011;5595;50.186;8.468;2024-02-28T07:23:35;1.20;;;0.43;;
11082;SDS011;5595;50.186;8.468;2024-02-28T07:26:05;1.50;;;0.83;;
11082;SDS011;5595;50.186;8.468;2024-02-28T07:28:32;1.17;;;0.57;;
11082;SDS011;5595;50.186;8.468;2024-02-28T07:30:59;1.13;;;0.40;;
11082;SDS011;5595;50.186;8.468;2024-02-28T07:33:27;0.70;;;0.53;;
11082;SDS011;5595;50.186;8.468;2024-02-28T07:35:54;4.63;;;0.67;;
11082;SDS011;5595;50.186;8.468;2024-02-28T07:38:25;1.43;;;1.10;;
11082;SDS011;5595;50.186;8.468;2024-02-28T07:40:52;0.93;;;0.67;;
11082;SDS011;5595;50.186;8.468;2024-02-28T07:43:19;1.03;;;0.67;;
11082;SDS011;5595;50.186;8.468;2024-02-28T07:45:46;1.87;;;1.30;;
11082;SDS011;5595;50.186;8.468;2024-02-28T07:48:13;1.83;;;0.93;;
11082;SDS011;5595;50.186;8.468;2024-02-28T07:50:40;2.77;;;1.00;;
11082;SDS011;5595;50.186;8.468;2024-02-28T07:53:07;3.13;;;1.00;;
11082;SDS011;5595;50.186;8.468;2024-02-28T07:55:33;3.37;;;0.97;;
11082;SDS011;5595;50.186;8.468;2024-02-28T07:58:00;3.07;;;1.37;;
11082;SDS011;5595;50.186;8.468;2024-02-28T08:00:27;3.37;;;1.20;;
11082;SDS011;5595;50.186;8.468;2024-02-28T08:02:54;2.23;;;1.47;;
11082;SDS011;5595;50.186;8.468;2024-02-28T08:05:21;3.43;;;1.73;;
11082;SDS011;5595;50.186;8.468;2024-02-28T08:07:49;3.33;;;1.27;;
11082;SDS011;5595;50.186;8.468;2024-02-28T08:10:17;3.87;;;1.77;;
11082;SDS011;5595;50.186;8.468;2024-02-28T08:12:44;4.37;;;2.40;;
11082;SDS011;5595;50.186;8.468;2024-02-28T08:15:10;2.67;;;1.80;;
11082;SDS011;5595;50.186;8.468;2024-02-28T08:17:37;4.27;;;2.50;;
11082;SDS011;5595;50.186;8.468;2024-02-28T08:20:05;5.03;;;2.70;;
11082;SDS011;5595;50.186;8.468;2024-02-28T08:22:33;6.43;;;3.70;;
11082;SDS011;5595;50.186;8.468;2024-02-28T08:25:01;5.17;;;3.47;;
11082;SDS011;5595;50.186;8.468;2024-02-28T08:27:28;5.20;;;3.17;;
11082;SDS011;5595;50.186;8.468;2024-02-28T08:29:55;9.03;;;4.57;;
11082;SDS011;5595;50.186;8.468;2024-02-28T08:32:23;11.93;;;5.63;;
11082;SDS011;5595;50.186;8.468;2024-02-28T08:34:51;10.13;;;5.10;;
11082;SDS011;5595;50.186;8.468;2024-02-28T08:37:19;12.03;;;5.60;;
11082;SDS011;5595;50.186;8.468;2024-02-28T08:39:46;15.43;;;6.67;;
11082;SDS011;5595;50.186;8.468;2024-02-28T08:42:14;16.30;;;7.90;;
11082;SDS011;5595;50.186;8.468;2024-02-28T08:44:41;12.53;;;6.70;;
11082;SDS011;5595;50.186;8.468;2024-02-28T08:47:07;13.47;;;7.07;;
11082;SDS011;5595;50.186;8.468;2024-02-28T08:49:38;15.60;;;7.27;;
11082;SDS011;5595;50.186;8.468;2024-02-28T08:52:05;16.97;;;8.23;;
11082;SDS011;5595;50.186;8.468;2024-02-28T08:54:32;15.20;;;7.90;;
11082;SDS011;5595;50.186;8.468;2024-02-28T08:56:58;15.47;;;7.63;;
11082;SDS011;5595;50.186;8.468;2024-02-28T08:59:27;15.47;;;8.30;;
11082;SDS011;5595;50.186;8.468;2024-02-28T09:01:53;16.07;;;8.10;;
11082;SDS011;5595;50.186;8.468;2024-02-28T09:04:20;21.63;;;7.80;;
11082;SDS011;5595;50.186;8.468;2024-02-28T09:06:47;13.27;;;7.27;;
11082;SDS011;5595;50.186;8.468;2024-02-28T09:09:14;14.13;;;6.83;;
11082;SDS011;5595;50.186;8.468;2024-02-28T09:11:41;10.07;;;4.73;;
11082;SDS011;5595;50.186;8.468;2024-02-28T09:14:08;11.90;;;6.07;;
11082;SDS011;5595;50.186;8.468;2024-02-28T09:16:36;9.60;;;5.47;;
11082;SDS011;5595;50.186;8.468;2024-02-28T09:19:03;10.87;;;5.30;;
11082;SDS011;5595;50.186;8.468;2024-02-28T09:21:30;10.87;;;5.67;;
11082;SDS011;5595;50.186;8.468;2024-02-28T09:23:57;10.30;;;6.00;;
11082;SDS011;5595;50.186;8.468;2024-02-28T09:26:24;12.90;;;6.20;;
11082;SDS011;5595;50.186;8.468;2024-02-28T09:28:52;13.70;;;5.83;;
11082;SDS011;5595;50.186;8.468;2024-02-28T09:31:18;12.27;;;5.50;;
11082;SDS011;5595;50.186;8.468;2024-02-28T09:33:47;11.30;;;6.53;;
11082;SDS011;5595;50.186;8.468;2024-02-28T09:36:14;12.03;;;6.50;;
11082;SDS011;5595;50.186;8.468;2024-02-28T09:38:40;16.77;;;7.33;;
11082;SDS011;5595;50.186;8.468;2024-02-28T09:41:08;16.53;;;8.10;;
11082;SDS011;5595;50.186;8.468;2024-02-28T09:43:41;17.47;;;7.43;;
11082;SDS011;5595;50.186;8.468;2024-02-28T09:46:08;14.87;;;6.87;;
11082;SDS011;5595;50.186;8.468;2024-02-28T09:48:37;15.67;;;7.53;;
11082;SDS011;5595;50.186;8.468;2024-02-28T09:51:07;15.23;;;6.73;;
11082;SDS011;5595;50.186;8.468;2024-02-28T09:53:35;14.60;;;6.63;;
11082;SDS011;5595;50.186;8.468;2024-02-28T09:56:02;11.83;;;6.03;;
11082;SDS011;5595;50.186;8.468;2024-02-28T09:58:29;10.10;;;5.63;;
11082;SDS011;5595;50.186;8.468;2024-02-28T10:00:58;11.67;;;5.93;;
11082;SDS011;5595;50.186;8.468;2024-02-28T10:03:28;11.40;;;6.03;;
11082;SDS011;5595;50.186;8.468;2024-02-28T10:05:57;10.40;;;5.70;;
11082;SDS011;5595;50.186;8.468;2024-02-28T10:08:25;13.93;;;6.13;;
11082;SDS011;5595;50.186;8.468;2024-02-28T10:10:52;10.23;;;5.23;;
11082;SDS011;5595;50.186;8.468;2024-02-28T10:13:21;10.40;;;5.47;;
11082;SDS011;5595;50.186;8.468;2024-02-28T10:15:48;14.17;;;6.17;;
11082;SDS011;5595;50.186;8.468;2024-02-28T10:18:15;11.63;;;5.87;;
11082;SDS011;5595;50.186;8.468;2024-02-28T10:20:42;9.80;;;6.40;;
11082;SDS011;5595;50.186;8.468;2024-02-28T10:23:09;11.20;;;5.67;;
11082;SDS011;5595;50.186;8.468;2024-02-28T10:25:42;8.97;;;4.97;;
11082;SDS011;5595;50.186;8.468;2024-02-28T10:28:10;9.47;;;4.97;;
11082;SDS011;5595;50.186;8.468;2024-02-28T10:30:38;9.60;;;5.07;;
11082;SDS011;5595;50.186;8.468;2024-02-28T10:33:09;12.63;;;5.87;;
11082;SDS011;5595;50.186;8.468;2024-02-28T10:35:37;11.63;;;5.47;;
11082;SDS011;5595;50.186;8.468;2024-02-28T10:38:05;10.00;;;5.10;;
11082;SDS011;5595;50.186;8.468;2024-02-28T10:40:32;9.73;;;5.77;;
11082;SDS011;5595;50.186;8.468;2024-02-28T10:43:00;11.43;;;5.87;;
11082;SDS011;5595;50.186;8.468;2024-02-28T10:45:29;12.33;;;6.30;;
11082;SDS011;5595;50.186;8.468;2024-02-28T10:47:57;10.03;;;5.30;;
11082;SDS011;5595;50.186;8.468;2024-02-28T10:50:24;12.07;;;5.57;;
11082;SDS011;5595;50.186;8.468;2024-02-28T10:52:51;9.03;;;5.37;;
11082;SDS011;5595;50.186;8.468;2024-02-28T10:57:49;7.83;;;4.63;;
11082;SDS011;5595;50.186;8.468;2024-02-28T11:00:25;10.20;;;4.70;;
11082;SDS011;5595;50.186;8.468;2024-02-28T11:02:53;9.60;;;5.17;;
11082;SDS011;5595;50.186;8.468;2024-02-28T11:05:20;9.83;;;5.47;;
11082;SDS011;5595;50.186;8.468;2024-02-28T11:07:50;9.77;;;4.63;;
11082;SDS011;5595;50.186;8.468;2024-02-28T11:10:17;9.47;;;4.80;;
11082;SDS011;5595;50.186;8.468;2024-02-28T11:12:54;15.20;;;6.37;;
11082;SDS011;5595;50.186;8.468;2024-02-28T11:15:24;11.70;;;5.80;;
11082;SDS011;5595;50.186;8.468;2024-02-28T11:17:52;13.83;;;6.93;;
11082;SDS011;5595;50.186;8.468;2024-02-28T11:20:19;12.73;;;7.00;;
11082;SDS011;5595;50.186;8.468;2024-02-28T11:22:47;14.23;;;7.10;;
11082;SDS011;5595;50.186;8.468;2024-02-28T11:25:15;15.37;;;7.10;;
11082;SDS011;5595;50.186;8.468;2024-02-28T11:27:45;13.47;;;7.13;;
11082;SDS011;5595;50.186;8.468;2024-02-28T11:30:13;15.67;;;8.37;;
11082;SDS011;5595;50.186;8.468;2024-02-28T11:32:42;13.63;;;7.17;;
11082;SDS011;5595;50.186;8.468;2024-02-28T11:35:09;14.90;;;8.57;;
11082;SDS011;5595;50.186;8.468;2024-02-28T11:37:37;18.07;;;8.97;;
11082;SDS011;5595;50.186;8.468;2024-02-28T11:40:06;16.63;;;8.60;;
11082;SDS011;5595;50.186;8.468;2024-02-28T11:42:34;15.40;;;9.30;;
11082;SDS011;5595;50.186;8.468;2024-02-28T11:45:01;17.63;;;9.30;;
11082;SDS011;5595;50.186;8.468;2024-02-28T11:47:30;15.53;;;8.90;;
11082;SDS011;5595;50.186;8.468;2024-02-28T11:49:59;13.37;;;7.80;;
11082;SDS011;5595;50.186;8.468;2024-02-28T11:52:27;15.90;;;9.33;;
11082;SDS011;5595;50.186;8.468;2024-02-28T11:54:56;13.47;;;9.07;;
11082;SDS011;5595;50.186;8.468;2024-02-28T11:57:23;16.43;;;8.93;;
11082;SDS011;5595;50.186;8.468;2024-02-28T11:59:50;15.20;;;9.13;;
11082;SDS011;5595;50.186;8.468;2024-02-28T12:02:17;13.90;;;8.27;;
11082;SDS011;5595;50.186;8.468;2024-02-28T12:04:45;16.60;;;8.97;;
11082;SDS011;5595;50.186;8.468;2024-02-28T12:07:16;14.47;;;9.43;;
11082;SDS011;5595;50.186;8.468;2024-02-28T12:09:43;20.13;;;9.90;;
11082;SDS011;5595;50.186;8.468;2024-02-28T12:12:11;15.17;;;8.77;;
11082;SDS011;5595;50.186;8.468;2024-02-28T12:14:38;13.97;;;8.40;;
11082;SDS011;5595;50.186;8.468;2024-02-28T12:17:05;18.90;;;9.37;;
11082;SDS011;5595;50.186;8.468;2024-02-28T12:19:34;17.10;;;9.33;;
11082;SDS011;5595;50.186;8.468;2024-02-28T12:22:01;17.73;;;8.93;;
11082;SDS011;5595;50.186;8.468;2024-02-28T12:24:30;15.70;;;8.87;;
11082;SDS011;5595;50.186;8.468;2024-02-28T12:26:57;15.17;;;9.17;;
11082;SDS011;5595;50.186;8.468;2024-02-28T12:29:24;14.70;;;9.10;;
11082;SDS011;5595;50.186;8.468;2024-02-28T12:31:51;17.27;;;9.43;;
11082;SDS011;5595;50.186;8.468;2024-02-28T12:34:18;18.57;;;9.73;;
11082;SDS011;5595;50.186;8.468;2024-02-28T12:36:44;13.23;;;8.50;;
11082;SDS011;5595;50.186;8.468;2024-02-28T12:39:11;16.33;;;8.93;;
11082;SDS011;5595;50.186;8.468;2024-02-28T12:41:39;14.63;;;7.87;;
11082;SDS011;5595;50.186;8.468;2024-02-28T12:44:07;12.87;;;7.77;;
11082;SDS011;5595;50.186;8.468;2024-02-28T12:46:34;16.47;;;9.07;;
11082;SDS011;5595;50.186;8.468;2024-02-28T12:49:02;13.80;;;8.43;;
11082;SDS011;5595;50.186;8.468;2024-02-28T12:51:35;15.63;;;9.27;;
11082;SDS011;5595;50.186;8.468;2024-02-28T12:54:03;15.80;;;8.90;;
11082;SDS011;5595;50.186;8.468;2024-02-28T12:56:30;14.27;;;8.30;;
11082;SDS011;5595;50.186;8.468;2024-02-28T12:58:59;15.40;;;9.00;;
11082;SDS011;5595;50.186;8.468;2024-02-28T13:01:26;13.33;;;8.37;;
11082;SDS011;5595;50.186;8.468;2024-02-28T13:03:53;13.40;;;8.17;;
11082;SDS011;5595;50.186;8.468;2024-02-28T13:06:20;15.33;;;8.37;;
11082;SDS011;5595;50.186;8.468;2024-02-28T13:08:47;12.80;;;7.63;;
11082;SDS011;5595;50.186;8.468;2024-02-28T13:11:16;15.47;;;8.63;;
11082;SDS011;5595;50.186;8.468;2024-02-28T13:13:45;13.07;;;7.13;;
11082;SDS011;5595;50.186;8.468;2024-02-28T13:16:13;15.60;;;6.87;;
11082;SDS011;5595;50.186;8.468;2024-02-28T13:18:40;11.97;;;7.27;;
11082;SDS011;5595;50.186;8.468;2024-02-28T13:21:06;11.32;;;7.07;;
11082;SDS011;5595;50.186;8.468;2024-02-28T13:23:33;17.80;;;8.33;;
11082;SDS011;5595;50.186;8.468;2024-02-28T13:26:00;12.13;;;7.10;;
11082;SDS011;5595;50.186;8.468;2024-02-28T13:28:27;13.97;;;7.47;;
11082;SDS011;5595;50.186;8.468;2024-02-28T13:30:55;14.00;;;8.13;;
11082;SDS011;5595;50.186;8.468;2024-02-28T13:33:24;12.80;;;7.50;;
11082;SDS011;5595;50.186;8.468;2024-02-28T13:35:51;15.07;;;8.27;;
11082;SDS011;5595;50.186;8.468;2024-02-28T13:38:18;14.43;;;8.07;;
11082;SDS011;5595;50.186;8.468;2024-02-28T13:40:45;13.30;;;8.00;;
11082;SDS011;5595;50.186;8.468;2024-02-28T13:43:12;11.38;;;7.40;;
11082;SDS011;5595;50.186;8.468;2024-02-28T13:45:39;14.27;;;7.37;;
11082;SDS011;5595;50.186;8.468;2024-02-28T13:48:14;15.55;;;7.95;;
11082;SDS011;5595;50.186;8.468;2024-02-28T13:50:44;14.10;;;7.53;;
11082;SDS011;5595;50.186;8.468;2024-02-28T13:53:11;11.95;;;7.50;;
11082;SDS011;5595;50.186;8.468;2024-02-28T13:55:37;12.23;;;7.55;;
11082;SDS011;5595;50.186;8.468;2024-02-28T13:58:04;17.27;;;8.73;;
11082;SDS011;5595;50.186;8.468;2024-02-28T14:00:33;16.50;;;9.02;;
11082;SDS011;5595;50.186;8.468;2024-02-28T14:03:00;13.60;;;8.10;;
11082;SDS011;5595;50.186;8.468;2024-02-28T14:05:27;12.13;;;7.80;;
11082;SDS011;5595;50.186;8.468;2024-02-28T14:07:55;11.43;;;7.10;;
11082;SDS011;5595;50.186;8.468;2024-02-28T14:10:22;13.27;;;7.53;;
11082;SDS011;5595;50.186;8.468;2024-02-28T14:12:49;12.23;;;7.32;;
11082;SDS011;5595;50.186;8.468;2024-02-28T14:15:17;13.80;;;7.95;;
11082;SDS011;5595;50.186;8.468;2024-02-28T14:17:44;11.95;;;7.18;;
11082;SDS011;5595;50.186;8.468;2024-02-28T14:20:11;13.45;;;8.00;;
11082;SDS011;5595;50.186;8.468;2024-02-28T14:22:38;12.80;;;7.80;;
11082;SDS011;5595;50.186;8.468;2024-02-28T14:25:08;12.05;;;6.70;;
11082;SDS011;5595;50.186;8.468;2024-02-28T14:27:37;11.60;;;6.88;;
11082;SDS011;5595;50.186;8.468;2024-02-28T14:30:04;10.97;;;6.63;;
11082;SDS011;5595;50.186;8.468;2024-02-28T14:32:33;10.33;;;6.70;;
11082;SDS011;5595;50.186;8.468;2024-02-28T14:35:01;13.85;;;5.85;;
11082;SDS011;5595;50.186;8.468;2024-02-28T14:37:28;11.15;;;6.30;;
11082;SDS011;5595;50.186;8.468;2024-02-28T14:39:55;11.30;;;7.03;;
11082;SDS011;5595;50.186;8.468;2024-02-28T14:42:23;9.85;;;6.15;;
11082;SDS011;5595;50.186;8.468;2024-02-28T14:44:50;11.13;;;6.57;;
11082;SDS011;5595;50.186;8.468;2024-02-28T14:47:16;9.77;;;6.57;;
11082;SDS011;5595;50.186;8.468;2024-02-28T14:49:43;10.33;;;5.73;;
11082;SDS011;5595;50.186;8.468;2024-02-28T14:52:09;12.40;;;6.70;;
11082;SDS011;5595;50.186;8.468;2024-02-28T14:54:36;9.70;;;5.70;;
11082;SDS011;5595;50.186;8.468;2024-02-28T14:57:04;9.43;;;6.30;;
11082;SDS011;5595;50.186;8.468;2024-02-28T14:59:32;11.17;;;6.30;;